Bow Saga — LADM7 — position and weather

sailwx.info

Track history (hours):
 
Tides and Currents Weather Stations Pressure Air Temp Water Temp Dewpoint Dewpoint Depression Visibility Wind Speed Wind Dir Waves Ship Positions

Bow Saga

Last reported at 2018-Jul-04 22:08 UTC. Time now 2018-Jul-17 11:34 UTC.
Position N 31°23' E 032°19'.
Warning: this ship's position is 12 days out of date.

Length 178 m; draft 12 m.

Type: Ship (hazmat cat B). MMSI: 258960000.

Date/timePositionNaut miles runAvg speedWind from/ knotsBaromVisibWave heightAir tempDewpointWater temp
2018-Jul-04 22:08N 31°23' E 032°19'0 0.0
2018-Jul-04 21:53N 31°23' E 032°19'0 0.0
2018-Jul-04 21:29N 31°23' E 032°19'0 0.0
2018-Jul-04 14:04N 31°23' E 032°19'0 0.5
2018-Jul-04 14:00N 31°23' E 032°19'1 1.6
2018-Jul-04 13:17N 31°23' E 032°18'  
2018-Jul-01 21:30N 36°13' E 015°13'714.7
2018-Jul-01 21:00N 36°16' E 015°04'714.5
2018-Jul-01 20:30N 36°18' E 014°56'714.2
2018-Jul-01 20:00N 36°20' E 014°48'714.4
2018-Jul-01 19:30N 36°22' E 014°39'714.6
2018-Jul-01 19:00N 36°24' E 014°30'814.6
2018-Jul-01 18:29N 36°26' E 014°21'714.5
2018-Jul-01 18:00N 36°28' E 014°13'814.7
2018-Jul-01 17:29N 36°30' E 014°04'714.7
2018-Jul-01 17:00N 36°32' E 013°55'714.7
2018-Jul-01 16:31N 36°35' E 013°47'714.4
2018-Jul-01 16:00N 36°38' E 013°39'714.3
2018-Jul-01 15:30N 36°40' E 013°30'714.2
2018-Jul-01 15:00N 36°42' E 013°22'714.0
2018-Jul-01 14:30N 36°44' E 013°14'714.0
2018-Jul-01 14:00N 36°48' E 013°06'714.2
2018-Jul-01 13:30N 36°50' E 012°58'714.0
2018-Jul-01 13:00N 36°53' E 012°49'714.0
2018-Jul-01 12:30N 36°55' E 012°41'714.0
2018-Jul-01 12:00N 36°57' E 012°33'714.0
2018-Jul-01 11:30N 36°60' E 012°25'713.9
2018-Jul-01 10:59N 37°02' E 012°16'35413.3
2018-Jun-30 08:26N 37°17' E 004°52'914.7
2018-Jun-30 07:50N 37°15' E 004°41'514.3
2018-Jun-30 07:28N 37°15' E 004°35'811.5
2018-Jun-30 06:47N 37°13' E 004°25'19614.2
2018-Jun-29 17:02N 36°41' E 000°24'114.1
2018-Jun-29 17:00N 36°41' E 000°23'714.0
2018-Jun-29 16:28N 36°40' E 000°14'914.1
2018-Jun-29 15:49N 36°39' E 000°03'47513.4
2018-Jun-28 04:18N 37°23' W 009°49'514.0
2018-Jun-28 03:55N 37°28' W 009°51'5314.4
2018-Jun-28 00:16N 38°20' W 010°07'814.9
2018-Jun-27 23:43N 38°28' W 010°09'414.7
2018-Jun-27 23:27N 38°32' W 010°10'1014.7
2018-Jun-27 22:44N 38°42' W 010°13'415.2
2018-Jun-27 22:30N 38°45' W 010°13'814.6
2018-Jun-27 21:56N 38°54' W 010°13'1214.3
2018-Jun-27 21:07N 39°05' W 010°12'1414.6
2018-Jun-27 20:09N 39°19' W 010°12'2314.6
2018-Jun-27 18:33N 39°43' W 010°12'58414.0
2018-Jun-26 00:49N 48°55' W 005°47'514.6
2018-Jun-26 00:30N 48°58' W 005°41'714.9
2018-Jun-26 00:00N 49°01' W 005°31'815.2
2018-Jun-25 23:30N 49°05' W 005°21'3815.6
2018-Jun-25 21:02N 49°24' W 004°30'116.8
2018-Jun-25 21:00N 49°24' W 004°29'2716.2
2018-Jun-25 19:22N 49°38' W 003°54'1215.2
2018-Jun-25 18:34N 49°44' W 003°37'314.8
2018-Jun-25 18:22N 49°45' W 003°33'514.6
2018-Jun-25 18:00N 49°47' W 003°26'714.2
2018-Jun-25 17:30N 49°51' W 003°16'714.0
2018-Jun-25 17:01N 49°54' W 003°07'714.2
2018-Jun-25 16:30N 49°57' W 002°57'714.2
2018-Jun-25 15:59N 49°60' W 002°46'814.6
2018-Jun-25 15:26N 50°02' W 002°34'2415.6
2018-Jun-25 13:54N 50°07' W 001°58'4 6.9
2018-Jun-25 13:18N 50°08' W 001°52'2314.5
2018-Jun-25 11:42N 50°17' W 001°18'618.0
2018-Jun-25 11:21N 50°18' W 001°08'617.7
2018-Jun-25 11:00N 50°19' W 000°58'816.8
2018-Jun-25 10:30N 50°22' W 000°46'816.1
2018-Jun-25 10:00N 50°24' W 000°34'815.7
2018-Jun-25 09:30N 50°26' W 000°22'815.2
2018-Jun-25 09:00N 50°28' W 000°10'814.7
2018-Jun-25 08:28N 50°31' E 000°01'714.3
2018-Jun-25 08:00N 50°32' E 000°11'713.9
2018-Jun-25 07:30N 50°35' E 000°22'713.9
2018-Jun-25 07:01N 50°37' E 000°32'714.2
2018-Jun-25 06:30N 50°41' E 000°41'714.7
2018-Jun-25 06:01N 50°45' E 000°51'815.3
2018-Jun-25 05:30N 50°49' E 001°01'816.3
2018-Jun-25 05:00N 50°55' E 001°11'817.0
2018-Jun-25 04:30N 51°00' E 001°21'816.9
2018-Jun-25 04:00N 51°05' E 001°32'815.8
2018-Jun-25 03:30N 51°10' E 001°41'713.7
2018-Jun-25 03:00N 51°16' E 001°48'612.8
2018-Jun-25 02:30N 51°21' E 001°53'612.6
2018-Jun-25 02:00N 51°25' E 002°00'713.4
2018-Jun-25 01:30N 51°23' E 002°10'612.8
2018-Jun-25 01:00N 51°21' E 002°20'612.8
2018-Jun-25 00:30N 51°23' E 002°30'612.5
2018-Jun-25 00:00N 51°23' E 002°40'510.1
2018-Jun-24 23:30N 51°25' E 002°48'612.1
2018-Jun-24 23:00N 51°25' E 002°57'612.1
2018-Jun-24 22:29N 51°24' E 003°07'  
Track history (hours):
 
Tides and Currents Weather Stations Pressure Air Temp Water Temp Dewpoint Dewpoint Depression Visibility Wind Speed Wind Dir Waves Ship Positions

Bow Saga

Last reported at 2018-Jul-04 22:08 UTC. Time now 2018-Jul-17 11:34 UTC.
Position N 31°23' E 032°19'.
Warning: this ship's position is 12 days out of date.

Length 178 m; draft 12 m.

Type: Ship (hazmat cat B). MMSI: 258960000.

Date/timePositionNaut miles runAvg speedWind from/ knotsBaromVisibWave heightAir tempDewpointWater temp
2018-Jul-04 22:08N 31°23' E 032°19'0 0.0
2018-Jul-04 21:53N 31°23' E 032°19'0 0.0
2018-Jul-04 21:29N 31°23' E 032°19'0 0.0
2018-Jul-04 14:04N 31°23' E 032°19'0 0.5
2018-Jul-04 14:00N 31°23' E 032°19'1 1.6
2018-Jul-04 13:17N 31°23' E 032°18'  
2018-Jul-01 21:30N 36°13' E 015°13'714.7
2018-Jul-01 21:00N 36°16' E 015°04'714.5
2018-Jul-01 20:30N 36°18' E 014°56'714.2
2018-Jul-01 20:00N 36°20' E 014°48'714.4
2018-Jul-01 19:30N 36°22' E 014°39'714.6
2018-Jul-01 19:00N 36°24' E 014°30'814.6
2018-Jul-01 18:29N 36°26' E 014°21'714.5
2018-Jul-01 18:00N 36°28' E 014°13'814.7
2018-Jul-01 17:29N 36°30' E 014°04'714.7
2018-Jul-01 17:00N 36°32' E 013°55'714.7
2018-Jul-01 16:31N 36°35' E 013°47'714.4
2018-Jul-01 16:00N 36°38' E 013°39'714.3
2018-Jul-01 15:30N 36°40' E 013°30'714.2
2018-Jul-01 15:00N 36°42' E 013°22'714.0
2018-Jul-01 14:30N 36°44' E 013°14'714.0
2018-Jul-01 14:00N 36°48' E 013°06'714.2
2018-Jul-01 13:30N 36°50' E 012°58'714.0
2018-Jul-01 13:00N 36°53' E 012°49'714.0
2018-Jul-01 12:30N 36°55' E 012°41'714.0
2018-Jul-01 12:00N 36°57' E 012°33'714.0
2018-Jul-01 11:30N 36°60' E 012°25'713.9
2018-Jul-01 10:59N 37°02' E 012°16'35413.3
2018-Jun-30 08:26N 37°17' E 004°52'914.7
2018-Jun-30 07:50N 37°15' E 004°41'514.3
2018-Jun-30 07:28N 37°15' E 004°35'811.5
2018-Jun-30 06:47N 37°13' E 004°25'19614.2
2018-Jun-29 17:02N 36°41' E 000°24'114.1
2018-Jun-29 17:00N 36°41' E 000°23'714.0
2018-Jun-29 16:28N 36°40' E 000°14'914.1
2018-Jun-29 15:49N 36°39' E 000°03'47513.4
2018-Jun-28 04:18N 37°23' W 009°49'514.0
2018-Jun-28 03:55N 37°28' W 009°51'5314.4
2018-Jun-28 00:16N 38°20' W 010°07'814.9
2018-Jun-27 23:43N 38°28' W 010°09'414.7
2018-Jun-27 23:27N 38°32' W 010°10'1014.7
2018-Jun-27 22:44N 38°42' W 010°13'415.2
2018-Jun-27 22:30N 38°45' W 010°13'814.6
2018-Jun-27 21:56N 38°54' W 010°13'1214.3
2018-Jun-27 21:07N 39°05' W 010°12'1414.6
2018-Jun-27 20:09N 39°19' W 010°12'2314.6
2018-Jun-27 18:33N 39°43' W 010°12'58414.0
2018-Jun-26 00:49N 48°55' W 005°47'514.6
2018-Jun-26 00:30N 48°58' W 005°41'714.9
2018-Jun-26 00:00N 49°01' W 005°31'815.2
2018-Jun-25 23:30N 49°05' W 005°21'3815.6
2018-Jun-25 21:02N 49°24' W 004°30'116.8
2018-Jun-25 21:00N 49°24' W 004°29'2716.2
2018-Jun-25 19:22N 49°38' W 003°54'1215.2
2018-Jun-25 18:34N 49°44' W 003°37'314.8
2018-Jun-25 18:22N 49°45' W 003°33'514.6
2018-Jun-25 18:00N 49°47' W 003°26'714.2
2018-Jun-25 17:30N 49°51' W 003°16'714.0
2018-Jun-25 17:01N 49°54' W 003°07'714.2
2018-Jun-25 16:30N 49°57' W 002°57'714.2
2018-Jun-25 15:59N 49°60' W 002°46'814.6
2018-Jun-25 15:26N 50°02' W 002°34'2415.6
2018-Jun-25 13:54N 50°07' W 001°58'4 6.9
2018-Jun-25 13:18N 50°08' W 001°52'2314.5
2018-Jun-25 11:42N 50°17' W 001°18'618.0
2018-Jun-25 11:21N 50°18' W 001°08'617.7
2018-Jun-25 11:00N 50°19' W 000°58'816.8
2018-Jun-25 10:30N 50°22' W 000°46'816.1
2018-Jun-25 10:00N 50°24' W 000°34'815.7
2018-Jun-25 09:30N 50°26' W 000°22'815.2
2018-Jun-25 09:00N 50°28' W 000°10'814.7
2018-Jun-25 08:28N 50°31' E 000°01'714.3
2018-Jun-25 08:00N 50°32' E 000°11'713.9
2018-Jun-25 07:30N 50°35' E 000°22'713.9
2018-Jun-25 07:01N 50°37' E 000°32'714.2
2018-Jun-25 06:30N 50°41' E 000°41'714.7
2018-Jun-25 06:01N 50°45' E 000°51'815.3
2018-Jun-25 05:30N 50°49' E 001°01'816.3
2018-Jun-25 05:00N 50°55' E 001°11'817.0
2018-Jun-25 04:30N 51°00' E 001°21'816.9
2018-Jun-25 04:00N 51°05' E 001°32'815.8
2018-Jun-25 03:30N 51°10' E 001°41'713.7
2018-Jun-25 03:00N 51°16' E 001°48'612.8
2018-Jun-25 02:30N 51°21' E 001°53'612.6
2018-Jun-25 02:00N 51°25' E 002°00'713.4
2018-Jun-25 01:30N 51°23' E 002°10'612.8
2018-Jun-25 01:00N 51°21' E 002°20'612.8
2018-Jun-25 00:30N 51°23' E 002°30'612.5
2018-Jun-25 00:00N 51°23' E 002°40'510.1
2018-Jun-24 23:30N 51°25' E 002°48'612.1
2018-Jun-24 23:00N 51°25' E 002°57'612.1
2018-Jun-24 22:29N 51°24' E 003°07'  

Dump ship's entire track history